LFSD Airport Information

Runway Information
Runway 02 Length 5905 ft width 118 ft
Elevation 719 ft Threshold 0 ft Heading 15
Runway 20 Length 5905 ft Width 118 ft
Elevation 728 ft Threshold 0 ft Heading 195
Runway 18 Length 7874 ft width 148 ft
Elevation 726 ft Threshold 0 ft Heading 175
Runway 36 Length 7874 ft Width 148 ft
Elevation 710 ft Threshold 0 ft Heading 355
Airport Frequencies
Type A/D Name DIJON APP Frequency 142.45 MHZ
Type AFIS Name DIJON INFO Frequency 118.325 MHZ
Type GND Name DIJON GND Frequency 122.1 MHZ
Type TWR Name DIJON TWR Frequency 118.325 MHZ
Airport Navaids
Type TACAN Name Dijon Frequency 113500 KHZ
Type VOR-DME Name Dijon Frequency 111450 KHZ
Airport Weather Information & NOTAM
ADDS - METARS form results

(1640 UTC 20 January 2022)
Data provider http://aviationweather.gov/metar/data/
 
METAR text: LFSD 201630Z AUTO 35009KT 320V030 CAVOK 04/00 Q1030
Conditions at: LFSD (DIJON/LONGVIC(FA, FR) observed 1630 UTC 20 January 2022
Temperature: 4.0°C (39°F)
Dewpoint: 0.0°C (32°F) [RH = 75%]
Pressure (altimeter): 30.41 inches Hg (1030.0 mb)
Winds: from the N (350 degrees) at 10 MPH (9 knots; 4.6 m/s)
Visibility: 6 or more miles (10+ km)
Ceiling: ceiling and visibility are OK
Clouds: unknown
Weather: no significant weather observed at this time

METAR text: LFSD 201600Z AUTO 35008KT CAVOK 04/M00 Q1029
Conditions at: LFSD (DIJON/LONGVIC(FA, FR) observed 1600 UTC 20 January 2022
Temperature: 4.0°C (39°F)
Dewpoint: 0.0°C (32°F) [RH = 75%]
Pressure (altimeter): 30.38 inches Hg (1029.0 mb)
Winds: from the N (350 degrees) at 9 MPH (8 knots; 4.1 m/s)
Visibility: 6 or more miles (10+ km)
Ceiling: ceiling and visibility are OK
Clouds: unknown
Weather: no significant weather observed at this time